Time;durP1;ratioP1;P1;durP2;ratioP2;P2;SDS_P1;SDS_P2;PMS_P1;PMS_P2;Temp;Humidity;BMP_temperature;BMP_pressure;BME280_temperature;BME280_humidity;BME280_pressure;Samples;Min_cycle;Max_cycle;Signal;HPM_P1;HPM_P2
2023/08/21 00:00:41;;;;;;;8.63;7.75;;;;;;;;;;5133091;27;20121;-69
2023/08/21 00:03:07;;;;;;;7.70;7.10;;;;;;;;;;5132757;27;20066;-70
2023/08/21 00:05:33;;;;;;;8.43;7.63;;;;;;;;;;5132773;27;20039;-69
2023/08/21 00:07:58;;;;;;;7.03;6.63;;;;;;;;;;5132919;27;20031;-69
2023/08/21 00:10:24;;;;;;;7.75;7.28;;;;;;;;;;5132354;27;20043;-69
2023/08/21 00:12:50;;;;;;;7.90;7.38;;;;;;;;;;5132764;27;20105;-69
2023/08/21 00:15:16;;;;;;;7.68;6.93;;;;;;;;;;5132002;27;20153;-69
2023/08/21 00:17:43;;;;;;;7.85;7.15;;;;;;;;;;5132605;27;20521;-68
2023/08/21 00:20:09;;;;;;;7.80;7.28;;;;;;;;;;5132086;27;20064;-68
2023/08/21 00:22:35;;;;;;;8.10;7.47;;;;;;;;;;5131907;27;20053;-70
2023/08/21 00:25:01;;;;;;;7.70;7.20;;;;;;;;;;5114135;27;20027;-69
2023/08/21 00:27:29;;;;;;;8.60;8.00;;;;;;;;;;5132219;27;20516;-69
2023/08/21 00:29:55;;;;;;;7.78;7.38;;;;;;;;;;5132235;27;20039;-68
2023/08/21 00:32:21;;;;;;;7.93;7.32;;;;;;;;;;5132070;27;20043;-70
2023/08/21 00:34:47;;;;;;;8.63;8.00;;;;;;;;;;5114645;27;20512;-69
2023/08/21 00:37:13;;;;;;;8.63;8.02;;;;;;;;;;5132647;27;20042;-68
2023/08/21 00:39:39;;;;;;;8.60;7.80;;;;;;;;;;5113837;27;20053;-69
2023/08/21 00:42:07;;;;;;;8.23;7.72;;;;;;;;;;5131948;27;20066;-69
2023/08/21 00:44:33;;;;;;;9.60;8.80;;;;;;;;;;5131920;27;20056;-69
2023/08/21 00:46:59;;;;;;;8.20;7.60;;;;;;;;;;5132188;27;20039;-69
2023/08/21 00:49:25;;;;;;;8.23;7.25;;;;;;;;;;5131567;27;20031;-70
2023/08/21 00:51:51;;;;;;;7.95;7.35;;;;;;;;;;5131896;27;20039;-68
2023/08/21 00:54:17;;;;;;;7.63;7.22;;;;;;;;;;5131495;27;20058;-69
2023/08/21 00:56:44;;;;;;;7.80;7.13;;;;;;;;;;5132000;27;20075;-69
2023/08/21 00:59:10;;;;;;;7.50;6.95;;;;;;;;;;5113265;27;20035;-69
2023/08/21 01:01:36;;;;;;;8.20;7.50;;;;;;;;;;5131789;27;20041;-70
2023/08/21 01:04:02;;;;;;;7.80;7.30;;;;;;;;;;5113214;27;20409;-69
2023/08/21 01:06:29;;;;;;;6.60;6.20;;;;;;;;;;5113127;27;20035;-68
2023/08/21 01:08:55;;;;;;;7.00;6.55;;;;;;;;;;5131717;27;20566;-68
2023/08/21 01:11:25;;;;;;;5.43;5.07;;;;;;;;;;5131395;27;20477;-69
2023/08/21 01:13:55;;;;;;;7.30;6.20;;;;;;;;;;5113235;27;20035;-68
2023/08/21 01:16:21;;;;;;;6.65;6.15;;;;;;;;;;5112871;27;20117;-68
2023/08/21 01:18:48;;;;;;;6.75;6.25;;;;;;;;;;5079368;27;20031;-69
2023/08/21 01:21:14;;;;;;;7.32;6.82;;;;;;;;;;5112550;27;20038;-69
2023/08/21 01:23:41;;;;;;;6.50;6.10;;;;;;;;;;5113146;28;20026;-68
2023/08/21 01:26:07;;;;;;;6.97;6.47;;;;;;;;;;5131165;27;20122;-68
2023/08/21 01:28:33;;;;;;;6.70;6.10;;;;;;;;;;5131328;27;20575;-68
2023/08/21 01:31:05;;;;;;;6.65;6.25;;;;;;;;;;5131319;27;20121;-69
2023/08/21 01:33:33;;;;;;;7.38;5.07;;;;;;;;;;5130477;27;20034;-69
2023/08/21 01:35:59;;;;;;;6.68;6.20;;;;;;;;;;5131025;27;20105;-68
2023/08/21 01:38:25;;;;;;;6.15;5.65;;;;;;;;;;5112608;28;20069;-68
2023/08/21 01:40:52;;;;;;;5.03;4.70;;;;;;;;;;5112780;27;20031;-69
2023/08/21 01:43:18;;;;;;;4.88;4.47;;;;;;;;;;5130962;27;20039;-68
2023/08/21 01:45:45;;;;;;;5.13;4.65;;;;;;;;;;5112766;27;20140;-69
2023/08/21 01:48:11;;;;;;;6.15;4.35;;;;;;;;;;5130896;27;20031;-67
2023/08/21 01:50:37;;;;;;;5.20;4.78;;;;;;;;;;5130951;27;20061;-69
2023/08/21 01:53:03;;;;;;;4.45;4.15;;;;;;;;;;5112949;27;20553;-70
2023/08/21 01:55:29;;;;;;;5.30;4.90;;;;;;;;;;5130578;27;20034;-69
2023/08/21 01:57:55;;;;;;;5.30;4.85;;;;;;;;;;5130984;27;20077;-69
2023/08/21 02:00:21;;;;;;;6.15;5.65;;;;;;;;;;5112294;27;20039;-69
2023/08/21 02:02:47;;;;;;;7.43;6.93;;;;;;;;;;5131227;27;20042;-68
2023/08/21 02:05:14;;;;;;;7.93;7.32;;;;;;;;;;5130642;27;20046;-69
2023/08/21 02:07:40;;;;;;;8.10;7.50;;;;;;;;;;5131083;27;20034;-69
2023/08/21 02:10:06;;;;;;;8.60;7.82;;;;;;;;;;5130923;27;20031;-69
2023/08/21 02:12:33;;;;;;;8.93;8.13;;;;;;;;;;5130509;27;20039;-69
2023/08/21 02:15:00;;;;;;;8.25;7.53;;;;;;;;;;5112213;27;20438;-69
2023/08/21 02:17:26;;;;;;;9.25;8.55;;;;;;;;;;5112196;27;20523;-69
2023/08/21 02:19:52;;;;;;;9.77;9.07;;;;;;;;;;5130790;27;20070;-69
2023/08/21 02:22:18;;;;;;;9.30;8.60;;;;;;;;;;5112263;27;20066;-70
2023/08/21 02:24:44;;;;;;;9.52;8.73;;;;;;;;;;5130758;27;20507;-70
2023/08/21 02:27:09;;;;;;;10.18;8.95;;;;;;;;;;5130680;27;20035;-68
2023/08/21 02:29:36;;;;;;;8.77;8.10;;;;;;;;;;5130592;27;20504;-69
2023/08/21 02:32:02;;;;;;;8.93;8.23;;;;;;;;;;5112532;28;20035;-69
2023/08/21 02:34:28;;;;;;;9.38;8.45;;;;;;;;;;5112073;28;20035;-68
2023/08/21 02:36:54;;;;;;;8.27;7.70;;;;;;;;;;5112174;27;20443;-68
2023/08/21 02:39:20;;;;;;;8.45;7.45;;;;;;;;;;5130192;27;20118;-69
2023/08/21 02:41:46;;;;;;;7.85;7.15;;;;;;;;;;5130640;27;20031;-68
2023/08/21 02:44:12;;;;;;;8.73;7.20;;;;;;;;;;5112321;27;20035;-67
2023/08/21 02:46:38;;;;;;;7.30;6.75;;;;;;;;;;5134344;27;20416;-68
2023/08/21 02:49:04;;;;;;;7.97;7.35;;;;;;;;;;5115983;27;20039;-69
2023/08/21 02:51:30;;;;;;;7.47;6.97;;;;;;;;;;5134005;27;20498;-68
2023/08/21 02:53:56;;;;;;;7.70;6.93;;;;;;;;;;5134130;27;20037;-68
2023/08/21 02:56:22;;;;;;;7.68;6.80;;;;;;;;;;5133675;27;20108;-68
2023/08/21 02:58:48;;;;;;;6.88;6.22;;;;;;;;;;5115973;27;20618;-69
2023/08/21 03:01:14;;;;;;;7.93;7.32;;;;;;;;;;5133781;27;20027;-69
2023/08/21 03:03:40;;;;;;;6.28;5.78;;;;;;;;;;5134099;27;20035;-68
2023/08/21 03:06:06;;;;;;;7.63;6.03;;;;;;;;;;5134191;27;20121;-69
2023/08/21 03:08:32;;;;;;;6.55;5.95;;;;;;;;;;5133652;27;20402;-69
2023/08/21 03:10:58;;;;;;;6.80;6.30;;;;;;;;;;5115465;27;20122;-69
2023/08/21 03:13:24;;;;;;;6.55;5.95;;;;;;;;;;5098441;27;20027;-69
2023/08/21 03:15:50;;;;;;;6.90;6.20;;;;;;;;;;5115288;27;20415;-69
2023/08/21 03:18:16;;;;;;;6.80;6.20;;;;;;;;;;5115047;27;20112;-69
2023/08/21 03:20:45;;;;;;;6.90;6.28;;;;;;;;;;5133802;27;20077;-70
2023/08/21 03:23:12;;;;;;;6.68;6.18;;;;;;;;;;5133657;27;20030;-69
2023/08/21 03:25:38;;;;;;;7.07;6.55;;;;;;;;;;5133316;27;20035;-70
2023/08/21 03:28:04;;;;;;;7.20;6.50;;;;;;;;;;5115163;27;20038;-69
2023/08/21 03:30:31;;;;;;;6.60;6.10;;;;;;;;;;5114927;27;20416;-70
2023/08/21 03:32:56;;;;;;;9.77;6.50;;;;;;;;;;5115170;27;20031;-69
2023/08/21 03:35:23;;;;;;;6.55;5.95;;;;;;;;;;5114793;27;20561;-70
2023/08/21 03:37:49;;;;;;;7.10;6.45;;;;;;;;;;5133574;27;20047;-69
2023/08/21 03:40:16;;;;;;;6.43;5.93;;;;;;;;;;5114507;27;20023;-69
2023/08/21 03:42:43;;;;;;;6.47;5.97;;;;;;;;;;5114834;27;20041;-69
2023/08/21 03:45:09;;;;;;;6.30;5.70;;;;;;;;;;5132914;27;20051;-71
2023/08/21 03:47:35;;;;;;;5.65;5.25;;;;;;;;;;5132820;27;20092;-69
2023/08/21 03:50:07;;;;;;;7.40;5.85;;;;;;;;;;5115057;27;20136;-69
2023/08/21 03:52:33;;;;;;;10.57;6.05;;;;;;;;;;5114826;27;20039;-69
2023/08/21 03:54:59;;;;;;;8.40;6.07;;;;;;;;;;5114666;27;20050;-68
2023/08/21 03:57:25;;;;;;;6.25;5.65;;;;;;;;;;5131753;27;20057;-68
2023/08/21 03:59:51;;;;;;;6.10;5.65;;;;;;;;;;5132870;27;20023;-70
2023/08/21 04:02:17;;;;;;;5.90;5.40;;;;;;;;;;5114404;27;20065;-70
2023/08/21 04:04:43;;;;;;;9.68;5.13;;;;;;;;;;5114469;27;20049;-70
2023/08/21 04:07:09;;;;;;;5.78;5.25;;;;;;;;;;5132898;27;20393;-69
2023/08/21 04:09:38;;;;;;;6.10;5.60;;;;;;;;;;5132559;27;20100;-70
2023/08/21 04:12:05;;;;;;;4.75;4.30;;;;;;;;;;5132902;27;20069;-70
2023/08/21 04:14:31;;;;;;;10.25;5.82;;;;;;;;;;5113705;27;20051;-70
2023/08/21 04:16:57;;;;;;;6.05;5.45;;;;;;;;;;5132500;27;20057;-70
2023/08/21 04:19:23;;;;;;;5.20;4.80;;;;;;;;;;5114049;27;20110;-68
2023/08/21 04:21:49;;;;;;;5.75;5.20;;;;;;;;;;5132420;27;20031;-70
2023/08/21 04:24:15;;;;;;;7.32;4.97;;;;;;;;;;5132488;27;20026;-70
2023/08/21 04:26:41;;;;;;;5.53;5.03;;;;;;;;;;5113881;27;20034;-70
2023/08/21 04:29:07;;;;;;;3.92;3.63;;;;;;;;;;5132587;27;20027;-71
2023/08/21 04:31:33;;;;;;;4.25;3.85;;;;;;;;;;5131895;27;20039;-70
2023/08/21 04:33:59;;;;;;;4.35;3.60;;;;;;;;;;5113964;27;20456;-67
2023/08/21 04:36:26;;;;;;;4.72;3.55;;;;;;;;;;5113533;27;20071;-71
2023/08/21 04:38:52;;;;;;;3.85;3.55;;;;;;;;;;5113724;27;20055;-70
2023/08/21 04:41:18;;;;;;;4.00;3.30;;;;;;;;;;5113656;27;20494;-70
2023/08/21 04:43:45;;;;;;;4.30;3.75;;;;;;;;;;5113836;27;20462;-70
2023/08/21 04:46:13;;;;;;;4.97;3.50;;;;;;;;;;5113366;27;20031;-68
2023/08/21 04:48:41;;;;;;;3.50;3.08;;;;;;;;;;5113216;27;20035;-71
2023/08/21 04:51:07;;;;;;;4.35;3.05;;;;;;;;;;5113516;27;20027;-69
2023/08/21 04:53:33;;;;;;;3.85;3.30;;;;;;;;;;5113100;27;20493;-69
2023/08/21 04:56:00;;;;;;;5.53;3.05;;;;;;;;;;5113321;27;20092;-70
2023/08/21 04:58:26;;;;;;;5.70;3.28;;;;;;;;;;5113335;27;20039;-71
2023/08/21 05:00:52;;;;;;;3.55;3.30;;;;;;;;;;5113417;27;20039;-69
2023/08/21 05:03:18;;;;;;;5.47;2.85;;;;;;;;;;5131830;27;20382;-70
2023/08/21 05:05:55;;;;;;;3.85;3.45;;;;;;;;;;5131594;27;20034;-70
2023/08/21 05:08:22;;;;;;;5.03;3.17;;;;;;;;;;5113081;27;20126;-70
2023/08/21 05:10:48;;;;;;;4.28;3.92;;;;;;;;;;5113204;27;20157;-70
2023/08/21 05:13:17;;;;;;;5.03;4.03;;;;;;;;;;5096707;27;20088;-71
2023/08/21 05:15:43;;;;;;;4.40;3.75;;;;;;;;;;5113150;27;20245;-70
2023/08/21 05:18:09;;;;;;;3.25;3.03;;;;;;;;;;5113017;27;20054;-70
2023/08/21 05:20:36;;;;;;;3.00;2.70;;;;;;;;;;5112696;27;20035;-70
2023/08/21 05:23:04;;;;;;;4.57;3.03;;;;;;;;;;5131413;27;20047;-70
2023/08/21 05:25:32;;;;;;;3.40;3.10;;;;;;;;;;5112578;27;20493;-70
2023/08/21 05:27:57;;;;;;;4.65;4.20;;;;;;;;;;5131486;27;20130;-70
2023/08/21 05:30:24;;;;;;;3.83;3.53;;;;;;;;;;5112509;27;20711;-70
2023/08/21 05:32:50;;;;;;;10.25;8.13;;;;;;;;;;5131085;27;20031;-70
2023/08/21 05:35:17;;;;;;;2.60;2.50;;;;;;;;;;5095702;27;20075;-70
2023/08/21 05:37:44;;;;;;;4.70;3.08;;;;;;;;;;5112467;27;20054;-69
2023/08/21 05:40:10;;;;;;;3.13;2.90;;;;;;;;;;5112749;27;20063;-69
2023/08/21 05:42:36;;;;;;;4.80;3.15;;;;;;;;;;5112491;27;20039;-70
2023/08/21 05:45:02;;;;;;;5.00;2.88;;;;;;;;;;5112783;27;20046;-70
2023/08/21 05:47:30;;;;;;;3.30;2.80;;;;;;;;;;5112823;27;20035;-70
2023/08/21 05:49:57;;;;;;;3.38;3.15;;;;;;;;;;5112563;27;20114;-69
2023/08/21 05:52:23;;;;;;;3.95;3.65;;;;;;;;;;5112516;28;20173;-70
2023/08/21 05:54:49;;;;;;;3.42;3.15;;;;;;;;;;5130847;27;20031;-70
2023/08/21 05:57:15;;;;;;;9.95;6.80;;;;;;;;;;5130699;27;20047;-70
2023/08/21 05:59:45;;;;;;;3.95;3.65;;;;;;;;;;5095410;27;20114;-70
2023/08/21 06:02:11;;;;;;;4.90;4.35;;;;;;;;;;5112612;28;20027;-69
2023/08/21 06:04:40;;;;;;;7.90;5.13;;;;;;;;;;5130619;27;20039;-70
2023/08/21 06:07:08;;;;;;;4.10;3.78;;;;;;;;;;5112513;27;20088;-70
2023/08/21 06:09:34;;;;;;;2.72;2.58;;;;;;;;;;5130467;27;20404;-71
2023/08/21 06:12:03;;;;;;;2.83;2.50;;;;;;;;;;5112334;27;20115;-70
2023/08/21 06:14:29;;;;;;;3.13;2.60;;;;;;;;;;5111815;28;20432;-70
2023/08/21 06:17:01;;;;;;;5.18;2.38;;;;;;;;;;5112779;27;20072;-69
2023/08/21 06:19:28;;;;;;;2.40;2.30;;;;;;;;;;5113123;27;20061;-69
2023/08/21 06:21:54;;;;;;;2.58;2.40;;;;;;;;;;5134494;27;20287;-69
2023/08/21 06:24:20;;;;;;;2.83;2.60;;;;;;;;;;5134507;27;20038;-68
2023/08/21 06:26:50;;;;;;;;;;;;;;;;;;5116773;27;20509;-71
2023/08/21 06:29:16;;;;;;;3.47;2.38;;;;;;;;;;5116259;27;19918;-71
2023/08/21 06:31:43;;;;;;;2.85;2.25;;;;;;;;;;5134246;27;20556;-69
2023/08/21 06:34:09;;;;;;;2.38;2.17;;;;;;;;;;5116161;27;20033;-70
2023/08/21 06:36:35;;;;;;;2.13;1.85;;;;;;;;;;5115722;27;20114;-70
2023/08/21 06:39:01;;;;;;;2.80;2.55;;;;;;;;;;5116185;27;20035;-71
2023/08/21 06:41:27;;;;;;;2.30;2.10;;;;;;;;;;5115767;27;20088;-69
2023/08/21 06:43:54;;;;;;;2.28;2.08;;;;;;;;;;5134453;27;20037;-70
2023/08/21 06:46:21;;;;;;;2.30;2.20;;;;;;;;;;5081883;27;20039;-70
2023/08/21 06:48:47;;;;;;;1.98;1.88;;;;;;;;;;5098710;27;20551;-70
2023/08/21 06:51:13;;;;;;;3.17;2.30;;;;;;;;;;5133950;27;20536;-70
2023/08/21 06:53:41;;;;;;;2.38;2.17;;;;;;;;;;5133973;27;20027;-70
2023/08/21 06:56:07;;;;;;;6.18;2.33;;;;;;;;;;5133948;27;20027;-70
2023/08/21 06:58:33;;;;;;;2.20;2.10;;;;;;;;;;5115578;27;20460;-70
2023/08/21 07:00:59;;;;;;;4.72;2.00;;;;;;;;;;5134022;27;20117;-70
2023/08/21 07:03:25;;;;;;;2.50;2.30;;;;;;;;;;5134328;27;20520;-70
2023/08/21 07:05:57;;;;;;;2.00;1.90;;;;;;;;;;5133978;27;20053;-70
2023/08/21 07:08:24;;;;;;;3.10;2.00;;;;;;;;;;5134157;27;20038;-69
2023/08/21 07:10:50;;;;;;;2.65;1.95;;;;;;;;;;5115310;27;20039;-70
2023/08/21 07:13:15;;;;;;;2.45;2.25;;;;;;;;;;5115781;27;20031;-70
2023/08/21 07:15:41;;;;;;;2.17;2.08;;;;;;;;;;5133331;27;20086;-69
2023/08/21 07:18:09;;;;;;;2.88;2.10;;;;;;;;;;5133717;27;20078;-71
2023/08/21 07:20:35;;;;;;;3.03;2.08;;;;;;;;;;5133875;27;20119;-69
2023/08/21 07:23:01;;;;;;;2.47;2.28;;;;;;;;;;5115497;27;20043;-71
2023/08/21 07:25:28;;;;;;;5.28;2.65;;;;;;;;;;5133853;27;20168;-69
2023/08/21 07:27:54;;;;;;;5.88;2.20;;;;;;;;;;5115347;27;20042;-70
2023/08/21 07:30:22;;;;;;;4.25;3.05;;;;;;;;;;5133189;27;20043;-70
2023/08/21 07:32:47;;;;;;;5.18;2.40;;;;;;;;;;5132854;27;20035;-70
2023/08/21 07:35:13;;;;;;;3.28;2.60;;;;;;;;;;5133567;27;20035;-70
2023/08/21 07:37:41;;;;;;;2.50;2.30;;;;;;;;;;5115232;27;20050;-69
2023/08/21 07:40:07;;;;;;;2.55;2.35;;;;;;;;;;5133777;27;20034;-69
2023/08/21 07:42:33;;;;;;;2.65;2.03;;;;;;;;;;5133507;27;20049;-70
2023/08/21 07:44:59;;;;;;;2.03;1.90;;;;;;;;;;5134174;27;20023;-70
2023/08/21 07:47:29;;;;;;;2.13;1.92;;;;;;;;;;5133384;27;20497;-69
2023/08/21 07:49:56;;;;;;;2.60;2.38;;;;;;;;;;5133107;27;20069;-71
2023/08/21 07:52:22;;;;;;;2.40;2.20;;;;;;;;;;5133087;27;20077;-70
2023/08/21 07:54:55;;;;;;;4.90;2.00;;;;;;;;;;5132705;27;20035;-69
2023/08/21 07:57:21;;;;;;;2.00;1.90;;;;;;;;;;5132874;27;20561;-70
2023/08/21 07:59:47;;;;;;;2.33;2.10;;;;;;;;;;5132988;27;20031;-69
2023/08/21 08:02:13;;;;;;;2.65;2.50;;;;;;;;;;5132832;27;20425;-70
2023/08/21 08:04:43;;;;;;;2.38;2.22;;;;;;;;;;5132853;27;20516;-70
2023/08/21 08:07:09;;;;;;;2.35;2.15;;;;;;;;;;5132975;27;20042;-70
2023/08/21 08:09:35;;;;;;;2.30;2.20;;;;;;;;;;5132668;27;20023;-70
2023/08/21 08:12:02;;;;;;;2.15;2.05;;;;;;;;;;5132634;27;20035;-70
2023/08/21 08:14:28;;;;;;;2.33;2.13;;;;;;;;;;5132609;27;20047;-71
2023/08/21 08:16:54;;;;;;;3.35;2.45;;;;;;;;;;5132165;27;20035;-70
2023/08/21 08:19:20;;;;;;;2.15;1.90;;;;;;;;;;5114205;27;20027;-70
2023/08/21 08:21:46;;;;;;;2.78;2.58;;;;;;;;;;5132519;27;20517;-71
2023/08/21 08:24:12;;;;;;;3.15;2.65;;;;;;;;;;5132768;27;20478;-71
2023/08/21 08:26:38;;;;;;;2.30;2.10;;;;;;;;;;5113915;27;20650;-71
2023/08/21 08:29:05;;;;;;;2.40;2.20;;;;;;;;;;5114130;27;20062;-70
2023/08/21 08:31:31;;;;;;;2.83;2.10;;;;;;;;;;5113904;27;20035;-70
2023/08/21 08:33:57;;;;;;;2.60;2.40;;;;;;;;;;5132043;27;20043;-70
2023/08/21 08:36:23;;;;;;;3.08;2.22;;;;;;;;;;5132085;27;20027;-70
2023/08/21 08:38:50;;;;;;;2.38;2.22;;;;;;;;;;5132073;27;20045;-70
2023/08/21 08:41:36;;;;;;;3.45;2.47;;;;;;;;;;5113865;27;20111;-69
2023/08/21 08:44:03;;;;;;;5.10;2.33;;;;;;;;;;5131766;27;20030;-69
2023/08/21 08:46:30;;;;;;;3.75;2.45;;;;;;;;;;5132188;27;20035;-68
2023/08/21 08:48:56;;;;;;;2.38;2.28;;;;;;;;;;5114142;27;20035;-71
2023/08/21 08:51:25;;;;;;;2.53;2.30;;;;;;;;;;5113953;27;20035;-70
2023/08/21 08:53:51;;;;;;;2.70;2.50;;;;;;;;;;5113883;27;20028;-68
2023/08/21 08:56:17;;;;;;;2.42;2.30;;;;;;;;;;5132012;27;20050;-70
2023/08/21 08:58:43;;;;;;;2.90;2.70;;;;;;;;;;5132021;27;20031;-70
2023/08/21 09:01:12;;;;;;;2.40;2.30;;;;;;;;;;5132118;27;20035;-73
2023/08/21 09:03:38;;;;;;;2.72;2.47;;;;;;;;;;5131782;27;20076;-70
2023/08/21 09:06:05;;;;;;;4.45;2.58;;;;;;;;;;5131971;27;20058;-70
2023/08/21 09:08:31;;;;;;;2.45;2.20;;;;;;;;;;5131739;27;20030;-70
2023/08/21 09:10:57;;;;;;;2.50;2.30;;;;;;;;;;5113107;27;20039;-70
2023/08/21 09:13:23;;;;;;;2.75;2.55;;;;;;;;;;5113254;27;20091;-70
2023/08/21 09:15:52;;;;;;;4.35;2.92;;;;;;;;;;5131025;27;20063;-72
2023/08/21 09:18:18;;;;;;;;;;;;;;;;;;5113493;27;20447;-71
2023/08/21 09:20:44;;;;;;;7.55;4.80;;;;;;;;;;5131254;27;19911;-71
2023/08/21 09:23:14;;;;;;;7.05;3.63;;;;;;;;;;5131570;27;20050;-71
2023/08/21 09:25:40;;;;;;;4.00;3.70;;;;;;;;;;5131292;27;20062;-70
2023/08/21 09:28:07;;;;;;;3.90;3.50;;;;;;;;;;5131548;27;20065;-69
2023/08/21 09:30:43;;;;;;;11.07;3.55;;;;;;;;;;5112415;27;20051;-70
2023/08/21 09:33:09;;;;;;;5.78;3.70;;;;;;;;;;5113246;27;20103;-70
2023/08/21 09:35:36;;;;;;;5.07;3.65;;;;;;;;;;5131358;27;20035;-70
2023/08/21 09:38:02;;;;;;;3.83;3.55;;;;;;;;;;5131075;27;20071;-71
2023/08/21 09:40:29;;;;;;;3.28;2.97;;;;;;;;;;5130566;27;20126;-71
2023/08/21 09:42:56;;;;;;;3.67;3.38;;;;;;;;;;5130845;27;20066;-71
2023/08/21 09:45:26;;;;;;;3.60;2.78;;;;;;;;;;5095816;27;20035;-69
2023/08/21 09:47:52;;;;;;;3.33;2.53;;;;;;;;;;5130825;27;20075;-69
2023/08/21 09:50:19;;;;;;;3.30;2.75;;;;;;;;;;5112737;28;20036;-70
2023/08/21 09:52:45;;;;;;;2.53;2.33;;;;;;;;;;5130788;27;20038;-71
2023/08/21 09:55:31;;;;;;;4.90;2.50;;;;;;;;;;5130408;27;20100;-70
2023/08/21 09:58:00;;;;;;;2.65;2.45;;;;;;;;;;5112334;28;20039;-69
2023/08/21 10:00:27;;;;;;;2.50;2.30;;;;;;;;;;5130882;27;20068;-71
2023/08/21 10:02:53;;;;;;;3.05;2.75;;;;;;;;;;5130698;27;20035;-69
2023/08/21 10:05:19;;;;;;;4.10;2.10;;;;;;;;;;5130914;27;20042;-70
2023/08/21 10:07:48;;;;;;;2.28;2.00;;;;;;;;;;5130662;27;20028;-71
2023/08/21 10:10:14;;;;;;;2.20;2.10;;;;;;;;;;5131025;27;20043;-69
2023/08/21 10:12:40;;;;;;;3.83;2.20;;;;;;;;;;5112437;28;20146;-69
2023/08/21 10:15:07;;;;;;;4.60;2.08;;;;;;;;;;5113297;27;20043;-70
2023/08/21 10:17:32;;;;;;;6.13;2.42;;;;;;;;;;5113855;27;20054;-70
2023/08/21 10:20:03;;;;;;;4.03;2.45;;;;;;;;;;5132415;27;20078;-70
2023/08/21 10:22:44;;;;;;;2.92;2.67;;;;;;;;;;5131699;27;20094;-71
2023/08/21 10:25:30;;;;;;;2.50;2.30;;;;;;;;;;5131740;27;20027;-70
2023/08/21 10:27:56;;;;;;;10.18;3.30;;;;;;;;;;5131388;27;20167;-70
2023/08/21 10:30:26;;;;;;;3.70;2.38;;;;;;;;;;5112217;27;20035;-70
2023/08/21 10:33:02;;;;;;;3.33;2.30;;;;;;;;;;5130413;27;20107;-71
2023/08/21 10:35:31;;;;;;;2.95;2.75;;;;;;;;;;5130599;27;20418;-69
2023/08/21 10:38:09;;;;;;;3.60;2.60;;;;;;;;;;5130213;27;20126;-68
2023/08/21 10:40:35;;;;;;;4.22;2.38;;;;;;;;;;5130722;27;20083;-72
2023/08/21 10:43:02;;;;;;;4.43;3.03;;;;;;;;;;5111986;27;20035;-70
2023/08/21 10:45:29;;;;;;;3.65;2.95;;;;;;;;;;5130496;27;20082;-70
2023/08/21 10:47:58;;;;;;;3.78;3.33;;;;;;;;;;5111762;28;20037;-70
2023/08/21 10:50:24;;;;;;;4.93;2.80;;;;;;;;;;5130571;27;20023;-70
2023/08/21 10:52:53;;;;;;;2.78;2.58;;;;;;;;;;5130149;27;20405;-70
2023/08/21 10:55:19;;;;;;;2.63;2.40;;;;;;;;;;5130733;27;20042;-71
2023/08/21 10:57:46;;;;;;;2.63;2.17;;;;;;;;;;5130030;27;20046;-71
2023/08/21 11:00:13;;;;;;;3.85;2.10;;;;;;;;;;5130836;27;20071;-69
2023/08/21 11:02:39;;;;;;;4.25;2.60;;;;;;;;;;5130252;27;20112;-71
2023/08/21 11:05:06;;;;;;;7.30;2.83;;;;;;;;;;5130368;27;20042;-72
2023/08/21 11:07:43;;;;;;;2.50;2.30;;;;;;;;;;5133944;27;20030;-71
2023/08/21 11:10:21;;;;;;;4.38;2.10;;;;;;;;;;5134154;27;20031;-70
2023/08/21 11:12:50;;;;;;;2.28;2.17;;;;;;;;;;5133706;27;20375;-70
2023/08/21 11:15:18;;;;;;;2.60;2.10;;;;;;;;;;5133779;27;20051;-70
2023/08/21 11:17:54;;;;;;;2.30;2.03;;;;;;;;;;5133332;27;20126;-71
2023/08/21 11:20:19;;;;;;;2.40;2.20;;;;;;;;;;5133714;27;20027;-69
2023/08/21 11:22:45;;;;;;;2.28;2.03;;;;;;;;;;5098275;27;20047;-71
2023/08/21 11:25:11;;;;;;;3.03;1.92;;;;;;;;;;5133941;27;20386;-70
2023/08/21 11:27:37;;;;;;;2.63;2.10;;;;;;;;;;5115288;27;20039;-71
2023/08/21 11:30:04;;;;;;;2.75;1.90;;;;;;;;;;5133630;27;20031;-71
2023/08/21 11:32:30;;;;;;;1.90;1.80;;;;;;;;;;5115330;27;20034;-70
2023/08/21 11:34:56;;;;;;;2.00;1.85;;;;;;;;;;5115130;27;20054;-69
2023/08/21 11:37:23;;;;;;;2.38;2.13;;;;;;;;;;5133378;27;20473;-69
2023/08/21 11:39:49;;;;;;;3.72;2.17;;;;;;;;;;5133262;27;20524;-71
2023/08/21 11:42:16;;;;;;;2.67;2.20;;;;;;;;;;5115052;27;20454;-70
2023/08/21 11:44:42;;;;;;;5.10;2.00;;;;;;;;;;5133225;27;20196;-70
2023/08/21 11:47:08;;;;;;;2.40;2.20;;;;;;;;;;5133009;27;20035;-71
2023/08/21 11:49:36;;;;;;;1.90;1.80;;;;;;;;;;5133018;27;20031;-70
2023/08/21 11:52:02;;;;;;;1.90;1.80;;;;;;;;;;5132985;27;20140;-71
2023/08/21 11:54:35;;;;;;;3.05;1.80;;;;;;;;;;5133089;27;20501;-70
2023/08/21 11:57:03;;;;;;;2.30;2.00;;;;;;;;;;5132819;27;20043;-71
2023/08/21 11:59:29;;;;;;;3.97;2.22;;;;;;;;;;5132989;27;20122;-70
2023/08/21 12:01:56;;;;;;;2.30;2.10;;;;;;;;;;5114289;27;20528;-69
2023/08/21 12:04:21;;;;;;;4.68;2.30;;;;;;;;;;5133112;27;20039;-70
2023/08/21 12:06:48;;;;;;;4.20;2.60;;;;;;;;;;5132741;27;20144;-70
2023/08/21 12:09:14;;;;;;;8.65;2.25;;;;;;;;;;5133263;27;20031;-70
2023/08/21 12:11:40;;;;;;;3.08;2.30;;;;;;;;;;5133293;27;20031;-70
2023/08/21 12:14:06;;;;;;;3.78;1.90;;;;;;;;;;5114079;27;20346;-71
2023/08/21 12:16:32;;;;;;;2.55;2.35;;;;;;;;;;5132328;27;20053;-69
2023/08/21 12:18:58;;;;;;;4.82;2.03;;;;;;;;;;5131955;27;20031;-70
2023/08/21 12:21:24;;;;;;;4.57;2.20;;;;;;;;;;5132567;27;20039;-70
2023/08/21 12:23:50;;;;;;;2.80;2.05;;;;;;;;;;5132413;27;20697;-71
2023/08/21 12:26:21;;;;;;;2.08;1.98;;;;;;;;;;5132408;27;20047;-69
2023/08/21 12:28:47;;;;;;;1.98;1.88;;;;;;;;;;5132524;27;20030;-72
2023/08/21 12:31:13;;;;;;;8.77;2.00;;;;;;;;;;5132415;27;20613;-70
2023/08/21 12:33:39;;;;;;;4.32;2.40;;;;;;;;;;5132283;27;20040;-69
2023/08/21 12:36:05;;;;;;;1.83;1.70;;;;;;;;;;5113567;27;20130;-71
2023/08/21 12:38:32;;;;;;;4.85;2.20;;;;;;;;;;5132134;27;20039;-70
2023/08/21 12:40:59;;;;;;;3.25;2.30;;;;;;;;;;5132011;27;20062;-70
2023/08/21 12:43:26;;;;;;;2.00;1.90;;;;;;;;;;5132152;27;20031;-71
2023/08/21 12:45:52;;;;;;;3.05;2.00;;;;;;;;;;5131917;27;20091;-71
2023/08/21 12:48:18;;;;;;;2.88;2.00;;;;;;;;;;5131915;27;20443;-70
2023/08/21 12:50:43;;;;;;;2.15;1.95;;;;;;;;;;5113473;27;20497;-71
2023/08/21 12:53:09;;;;;;;2.20;2.00;;;;;;;;;;5131787;27;20031;-70
2023/08/21 12:55:36;;;;;;;6.65;2.00;;;;;;;;;;5131808;27;20581;-71
2023/08/21 12:58:02;;;;;;;2.13;2.00;;;;;;;;;;5131556;27;20050;-71
2023/08/21 13:00:28;;;;;;;2.50;2.30;;;;;;;;;;5131895;27;20058;-72
2023/08/21 13:02:54;;;;;;;3.53;2.20;;;;;;;;;;5131424;27;20073;-69
2023/08/21 13:05:20;;;;;;;2.33;2.13;;;;;;;;;;5131754;27;20042;-71
2023/08/21 13:07:46;;;;;;;2.90;2.00;;;;;;;;;;5131577;27;20531;-70
2023/08/21 13:10:11;;;;;;;5.38;2.05;;;;;;;;;;5113235;27;20557;-69
2023/08/21 13:12:38;;;;;;;2.90;2.05;;;;;;;;;;5131375;27;20114;-70
2023/08/21 13:15:07;;;;;;;6.20;1.92;;;;;;;;;;5131512;27;20081;-71
2023/08/21 13:17:33;;;;;;;8.70;2.42;;;;;;;;;;5131336;27;20107;-71
2023/08/21 13:19:59;;;;;;;2.38;2.17;;;;;;;;;;5131910;27;20031;-70
2023/08/21 13:22:25;;;;;;;1.67;1.60;;;;;;;;;;5132135;27;20122;-70
2023/08/21 13:24:51;;;;;;;2.10;1.95;;;;;;;;;;5131388;27;20182;-70
2023/08/21 13:27:17;;;;;;;2.20;2.05;;;;;;;;;;5131282;27;20039;-70
2023/08/21 13:29:44;;;;;;;3.67;2.45;;;;;;;;;;5095863;27;20497;-69
2023/08/21 13:32:10;;;;;;;3.95;2.38;;;;;;;;;;5113014;27;20391;-69
2023/08/21 13:34:36;;;;;;;2.70;2.50;;;;;;;;;;5131049;27;20054;-70
2023/08/21 13:37:03;;;;;;;2.30;2.20;;;;;;;;;;5112342;27;20532;-70
2023/08/21 13:39:30;;;;;;;2.20;1.98;;;;;;;;;;5131305;27;20058;-70
2023/08/21 13:41:56;;;;;;;2.65;2.17;;;;;;;;;;5130653;27;20285;-70
2023/08/21 13:44:22;;;;;;;3.28;2.22;;;;;;;;;;5131247;27;20319;-71
2023/08/21 13:46:49;;;;;;;3.15;2.22;;;;;;;;;;5131002;27;20053;-71
2023/08/21 13:49:15;;;;;;;2.17;1.98;;;;;;;;;;5130765;27;20541;-69
2023/08/21 13:51:41;;;;;;;2.08;1.88;;;;;;;;;;5131290;27;20030;-71
2023/08/21 13:54:07;;;;;;;2.47;1.80;;;;;;;;;;5112522;28;20035;-70
2023/08/21 13:56:34;;;;;;;2.30;2.10;;;;;;;;;;5112482;28;20046;-70
2023/08/21 13:59:00;;;;;;;2.50;2.00;;;;;;;;;;5112244;27;20041;-71
2023/08/21 14:01:25;;;;;;;2.25;2.00;;;;;;;;;;5130673;27;20035;-71
2023/08/21 14:03:52;;;;;;;2.15;2.00;;;;;;;;;;5130625;27;20088;-71
2023/08/21 14:06:18;;;;;;;4.35;2.40;;;;;;;;;;5130017;27;20475;-71
2023/08/21 14:08:44;;;;;;;2.10;1.98;;;;;;;;;;5129925;27;20060;-70
2023/08/21 14:11:10;;;;;;;2.42;2.22;;;;;;;;;;5129720;27;20039;-72
2023/08/21 14:13:38;;;;;;;2.72;2.08;;;;;;;;;;5129662;27;20063;-71
2023/08/21 14:16:04;;;;;;;2.80;2.10;;;;;;;;;;5129724;27;20068;-71
2023/08/21 14:18:30;;;;;;;1.70;1.60;;;;;;;;;;5130413;27;20047;-70
2023/08/21 14:20:56;;;;;;;1.92;1.75;;;;;;;;;;5111606;27;20058;-70
2023/08/21 14:23:23;;;;;;;1.95;1.85;;;;;;;;;;5130575;27;20126;-69
2023/08/21 14:25:49;;;;;;;2.10;2.00;;;;;;;;;;5130360;27;20043;-71
2023/08/21 14:28:15;;;;;;;1.63;1.52;;;;;;;;;;5130210;27;20055;-71
2023/08/21 14:30:42;;;;;;;3.15;2.20;;;;;;;;;;5130437;27;20090;-70
2023/08/21 14:33:08;;;;;;;1.92;1.83;;;;;;;;;;5130400;27;20059;-70
2023/08/21 14:35:34;;;;;;;4.22;2.00;;;;;;;;;;5112200;28;20641;-70
2023/08/21 14:38:00;;;;;;;3.00;1.90;;;;;;;;;;5129780;27;20134;-70
2023/08/21 14:40:27;;;;;;;1.90;1.80;;;;;;;;;;5112927;27;20118;-71